Terminal Aerodrome Forecast
Issued by NWS

Home | Current Version | Previous Version | Text Only | Print | Product List | Glossary On
Versions: 1 2 3 4 5 6 7 8 9 10 11 12 13 14 15 16 17 18 19
000
FTUS41 KCLE 041747 CCA
TAFFDY
TAF COR
KFDY 041747Z 0418/0518 19005KT P6SM VCTS SCT030CB BKN045
      TEMPO 0419/0421 VRB15G40KT 2SM TSRA BKN030CB
     FM050000 23006KT P6SM SCT045
     FM050700 VRB03KT 4SM BR SCT050
      TEMPO 0510/0512 2SM BR
     FM051400 23006KT P6SM SCT050=

USA.gov is the U.S. government's official web portal to all federal, state and local government web resources and services.